Terminal Aerodrome Forecast
Issued by NWS Twin Cities, MN

Home | Current Version | Previous Version | Graphics & Text | Print | Product List | Glossary On
Versions: 1 2 3 4 5 6 7 8 9 10 11 12 13 14 15 16 17
000
FTUS43 KMPX 281100
TAFEAU
TAF
KEAU 281120Z 2812/2912 12007KT 6SM -SN BR SCT006 OVC035
      TEMPO 2812/2814 3SM -SN
     FM281500 12004KT P6SM VCSH SCT020 BKN050
      TEMPO 2819/2822 5SM -FZDZPL BR
     FM290200 11003KT P6SM OVC030=

USA.gov is the U.S. government's official web portal to all federal, state and local government web resources and services.